DLZ weather

Delaware Municipal Airport
Delaware, Ohio, United States

Public forecast

Using degrees Fahrenheit for public forecast. Weather courtesy of forecast.io.

Current aviation weather report (METAR) for Delaware Municipal Airport

Retrieved 2019/12/11 19:15 UTC (0 seconds ago):

KDLZ 111915Z AUTO 24006KT 1 3/4SM -SN OVC017 M02/M05 A3042 RMK AO2

Closest aviation forecast (TAF) to Delaware Municipal Airport

Closest forecast is John Glenn Columbus International Airport, 19.8 nm (36.6 km) SSE. Retrieved 2019/12/11 18:36 UTC (27 minutes ago):

TAF KCMH 111734Z 1118/1218 25012G20KT P6SM -SN BKN025 OVC060 FM112300 32010KT P6SM SCT025 BKN050 FM120300 07005KT P6SM SKC FM121400 15008KT P6SM BKN250